createdAt,value
2022-12-06T00:01:14.946Z,5.90
2022-12-06T00:03:42.726Z,4.57
2022-12-06T00:06:11.534Z,5.87
2022-12-06T00:08:38.272Z,5.00
2022-12-06T00:11:20.919Z,4.73
2022-12-06T00:13:47.584Z,4.73
2022-12-06T00:16:15.927Z,4.57
2022-12-06T00:18:43.341Z,5.00
2022-12-06T00:21:09.816Z,4.40
2022-12-06T00:23:38.256Z,4.73
2022-12-06T00:26:05.368Z,4.40
2022-12-06T00:28:32.500Z,4.20
2022-12-06T00:31:00.137Z,4.97
2022-12-06T00:33:27.334Z,4.83
2022-12-06T00:36:00.717Z,5.47
2022-12-06T00:38:27.836Z,5.37
2022-12-06T00:41:05.861Z,4.40
2022-12-06T00:43:32.873Z,4.70
2022-12-06T00:45:59.923Z,4.50
2022-12-06T00:48:26.795Z,4.43
2022-12-06T00:50:53.506Z,4.13
2022-12-06T00:53:20.244Z,4.70
2022-12-06T00:55:47.156Z,5.03
2022-12-06T00:58:13.725Z,4.20
2022-12-06T01:00:40.440Z,4.53
2022-12-06T01:03:07.271Z,5.23
2022-12-06T01:05:33.939Z,5.57
2022-12-06T01:08:00.566Z,4.70
2022-12-06T01:10:27.262Z,5.57
2022-12-06T01:12:53.877Z,4.13
2022-12-06T01:15:20.569Z,4.77
2022-12-06T01:17:47.196Z,4.87
2022-12-06T01:20:13.781Z,5.87
2022-12-06T01:22:40.377Z,4.90
2022-12-06T01:25:07.337Z,6.60
2022-12-06T01:27:33.925Z,5.40
2022-12-06T01:30:00.969Z,4.67
2022-12-06T01:32:29.306Z,7.10
2022-12-06T01:34:56.402Z,4.47
2022-12-06T01:37:23.031Z,5.07
2022-12-06T01:39:49.708Z,5.57
2022-12-06T01:42:16.369Z,4.90
2022-12-06T01:44:42.970Z,6.13
2022-12-06T01:47:36.468Z,6.33
2022-12-06T01:50:19.188Z,6.00
2022-12-06T01:52:53.472Z,5.33
2022-12-06T01:55:25.810Z,7.97
2022-12-06T01:57:52.371Z,7.17
2022-12-06T02:00:19.457Z,6.57
2022-12-06T02:02:46.265Z,5.30
2022-12-06T02:05:13.463Z,5.63
2022-12-06T02:07:40.126Z,7.37
2022-12-06T02:10:07.442Z,5.73
2022-12-06T02:12:34.089Z,6.60
2022-12-06T02:15:00.738Z,9.37
2022-12-06T02:17:45.721Z,7.07
2022-12-06T02:20:23.736Z,5.33
2022-12-06T02:23:09.392Z,5.77
2022-12-06T02:25:43.658Z,6.13
2022-12-06T02:28:37.812Z,5.03
2022-12-06T02:31:08.794Z,5.90
2022-12-06T02:33:49.303Z,7.23
2022-12-06T02:36:33.039Z,6.53
2022-12-06T02:39:09.362Z,6.30
2022-12-06T02:41:40.302Z,8.40
2022-12-06T02:44:09.037Z,7.27
2022-12-06T02:46:36.884Z,8.70
2022-12-06T02:49:04.751Z,6.67
2022-12-06T02:51:32.278Z,6.60
2022-12-06T02:54:00.055Z,6.27
2022-12-06T02:56:26.720Z,7.27
2022-12-06T02:58:53.398Z,6.20
2022-12-06T03:01:31.146Z,7.40
2022-12-06T03:04:13.510Z,6.73
2022-12-06T03:06:51.948Z,7.77
2022-12-06T03:09:25.110Z,9.23
2022-12-06T03:12:05.997Z,6.27
2022-12-06T03:14:56.407Z,6.13
2022-12-06T03:17:55.321Z,7.67
2022-12-06T03:20:32.032Z,7.77
2022-12-06T03:23:02.419Z,5.50
2022-12-06T03:25:29.051Z,6.93
2022-12-06T03:27:55.767Z,6.23
2022-12-06T03:30:22.571Z,7.30
2022-12-06T03:32:49.461Z,6.33
2022-12-06T03:35:19.448Z,6.50
2022-12-06T03:37:47.921Z,6.13
2022-12-06T03:40:23.822Z,6.70
2022-12-06T03:42:50.423Z,6.83
2022-12-06T03:45:17.266Z,5.70
2022-12-06T03:48:19.508Z,5.47
2022-12-06T03:50:58.385Z,7.83
2022-12-06T03:53:25.543Z,4.97
2022-12-06T03:55:52.484Z,6.77
2022-12-06T03:58:19.194Z,6.30
2022-12-06T04:00:45.930Z,6.63
2022-12-06T04:03:12.553Z,5.53
2022-12-06T04:05:39.087Z,5.60
2022-12-06T04:08:06.398Z,6.07
2022-12-06T04:10:33.026Z,8.07
2022-12-06T04:13:02.449Z,4.90
2022-12-06T04:15:30.897Z,7.17
2022-12-06T04:18:14.515Z,6.60
2022-12-06T04:21:15.334Z,5.63
2022-12-06T04:23:43.332Z,5.23
2022-12-06T04:26:11.843Z,5.47
2022-12-06T04:28:57.108Z,6.53
2022-12-06T04:31:42.368Z,6.93
2022-12-06T04:34:27.776Z,6.60
2022-12-06T04:37:14.783Z,6.70
2022-12-06T04:39:41.454Z,9.47
2022-12-06T04:42:26.537Z,5.83
2022-12-06T04:44:53.136Z,5.00
2022-12-06T04:47:19.710Z,4.83
2022-12-06T04:49:46.347Z,4.77
2022-12-06T04:52:15.915Z,5.97
2022-12-06T04:54:42.607Z,5.53
2022-12-06T04:57:11.641Z,6.03
2022-12-06T04:59:39.035Z,5.00
2022-12-06T05:02:06.009Z,4.77
2022-12-06T05:04:32.971Z,4.67
2022-12-06T05:06:59.577Z,4.13
2022-12-06T05:09:26.335Z,5.10
2022-12-06T05:11:52.911Z,4.93
2022-12-06T05:14:20.211Z,4.17
2022-12-06T05:16:46.841Z,5.70
2022-12-06T05:19:13.886Z,6.87
2022-12-06T05:21:40.481Z,5.00
2022-12-06T05:24:07.411Z,5.00
2022-12-06T05:26:34.040Z,5.13
2022-12-06T05:29:00.717Z,3.87
2022-12-06T05:31:27.471Z,4.50
2022-12-06T05:33:54.161Z,3.90
2022-12-06T05:36:25.812Z,7.13
2022-12-06T05:38:52.472Z,5.97
2022-12-06T05:41:20.182Z,5.40
2022-12-06T05:43:46.732Z,4.90
2022-12-06T05:46:13.375Z,5.53
2022-12-06T05:48:40.031Z,4.37
2022-12-06T05:51:06.599Z,4.83
2022-12-06T05:53:33.296Z,4.53
2022-12-06T05:56:06.851Z,5.10
2022-12-06T05:58:33.398Z,4.33
2022-12-06T06:00:59.908Z,3.60
2022-12-06T06:03:26.557Z,5.37
2022-12-06T06:05:56.382Z,4.07
2022-12-06T06:08:22.904Z,4.13
2022-12-06T06:10:49.446Z,5.13
2022-12-06T06:13:16.056Z,4.13
2022-12-06T06:15:42.616Z,4.50
2022-12-06T06:18:09.122Z,5.03
2022-12-06T06:20:35.698Z,3.53
2022-12-06T06:23:02.186Z,5.03
2022-12-06T06:25:28.703Z,5.43
2022-12-06T06:27:57.947Z,9.40
2022-12-06T06:30:24.458Z,8.37
2022-12-06T06:32:50.981Z,7.77
2022-12-06T06:35:17.615Z,10.57
2022-12-06T06:37:44.232Z,11.43
2022-12-06T06:40:11.429Z,15.17
2022-12-06T06:42:38.432Z,7.50
2022-12-06T06:45:05.884Z,11.80
2022-12-06T06:47:32.465Z,10.47
2022-12-06T06:49:59.312Z,8.37
2022-12-06T06:52:25.901Z,9.80
2022-12-06T06:54:52.577Z,9.77
2022-12-06T06:57:19.113Z,12.37
2022-12-06T06:59:46.000Z,10.60
2022-12-06T07:02:13.784Z,15.90
2022-12-06T07:04:40.469Z,11.10
2022-12-06T07:07:07.081Z,11.57
2022-12-06T07:09:33.926Z,13.37
2022-12-06T07:12:00.555Z,12.70
2022-12-06T07:14:27.140Z,12.43
2022-12-06T07:16:53.752Z,12.90
2022-12-06T07:19:20.348Z,11.90
2022-12-06T07:21:46.888Z,12.23
2022-12-06T07:24:13.532Z,11.07
2022-12-06T07:26:40.206Z,11.20
2022-12-06T07:29:06.727Z,10.60
2022-12-06T07:31:33.840Z,10.77
2022-12-06T07:34:01.414Z,11.30
2022-12-06T07:36:30.193Z,11.77
2022-12-06T07:38:57.751Z,10.87
2022-12-06T07:41:43.797Z,9.90
2022-12-06T07:44:29.835Z,10.40
2022-12-06T07:46:56.438Z,11.00
2022-12-06T07:49:23.115Z,12.83
2022-12-06T07:51:49.842Z,13.60
2022-12-06T07:54:16.538Z,13.73
2022-12-06T07:56:43.110Z,10.47
2022-12-06T07:59:09.729Z,9.90
2022-12-06T08:01:36.450Z,10.63
2022-12-06T08:04:03.478Z,11.87
2022-12-06T08:06:30.867Z,11.60
2022-12-06T08:08:57.407Z,13.13
2022-12-06T08:11:24.409Z,10.83
2022-12-06T08:13:51.041Z,9.47
2022-12-06T08:16:17.839Z,8.40
2022-12-06T08:18:44.436Z,7.83
2022-12-06T08:21:11.043Z,6.70
2022-12-06T08:23:37.637Z,7.03
2022-12-06T08:26:06.300Z,7.37
2022-12-06T08:28:33.986Z,7.70
2022-12-06T08:31:04.714Z,6.03
2022-12-06T08:33:32.889Z,8.17
2022-12-06T08:35:59.471Z,6.47
2022-12-06T08:38:26.032Z,5.63
2022-12-06T08:40:52.557Z,5.73
2022-12-06T08:43:19.118Z,6.63
2022-12-06T08:45:50.478Z,5.47
2022-12-06T08:48:17.003Z,5.30
2022-12-06T08:50:43.545Z,5.50
2022-12-06T08:53:10.053Z,5.77
2022-12-06T08:55:36.605Z,4.87
2022-12-06T08:58:03.112Z,5.10
2022-12-06T09:00:29.651Z,5.03
2022-12-06T09:02:56.437Z,5.37
2022-12-06T09:05:22.978Z,5.07
2022-12-06T09:07:49.562Z,5.63
2022-12-06T09:10:16.131Z,5.00
2022-12-06T09:12:42.649Z,5.40
2022-12-06T09:15:09.477Z,4.50
2022-12-06T09:17:36.023Z,4.80
2022-12-06T09:20:06.116Z,4.23
2022-12-06T09:22:35.370Z,4.43
2022-12-06T09:25:01.945Z,4.57
2022-12-06T09:27:29.814Z,3.87
2022-12-06T09:29:56.376Z,4.50
2022-12-06T09:32:22.928Z,4.37
2022-12-06T09:34:49.448Z,4.07
2022-12-06T09:37:15.947Z,4.27
2022-12-06T09:40:11.874Z,4.13
2022-12-06T09:42:47.341Z,4.10
2022-12-06T09:45:29.250Z,5.03
2022-12-06T09:47:55.713Z,3.90
2022-12-06T09:51:03.753Z,4.07
2022-12-06T09:53:30.118Z,3.50
2022-12-06T09:55:56.528Z,5.97
2022-12-06T09:58:54.388Z,3.87
2022-12-06T10:01:37.500Z,3.50
2022-12-06T10:04:28.387Z,3.50
2022-12-06T10:07:07.032Z,4.40
2022-12-06T10:09:55.021Z,3.30
2022-12-06T10:12:30.120Z,3.60
2022-12-06T10:15:11.746Z,3.63
2022-12-06T10:18:09.693Z,3.30
2022-12-06T10:20:50.104Z,3.17
2022-12-06T10:23:23.298Z,3.07
2022-12-06T10:26:05.495Z,2.97
2022-12-06T10:28:52.660Z,3.30
2022-12-06T10:31:23.007Z,3.17
2022-12-06T10:34:20.167Z,3.27
2022-12-06T10:37:14.515Z,3.30
2022-12-06T10:40:36.591Z,3.17
2022-12-06T10:43:09.984Z,3.27
2022-12-06T10:46:07.172Z,3.20
2022-12-06T10:48:39.567Z,5.40
2022-12-06T10:51:18.840Z,3.23
2022-12-06T10:53:49.063Z,3.30
2022-12-06T10:56:21.079Z,3.03
2022-12-06T10:58:52.632Z,3.73
2022-12-06T11:01:22.283Z,4.70
2022-12-06T11:04:04.003Z,3.07
2022-12-06T11:06:54.353Z,3.43
2022-12-06T11:09:34.187Z,2.93
2022-12-06T11:12:00.683Z,3.00
2022-12-06T11:14:33.139Z,3.00
2022-12-06T11:17:02.101Z,3.40
2022-12-06T11:20:12.125Z,3.03
2022-12-06T11:22:53.569Z,2.87
2022-12-06T11:25:29.872Z,3.27
2022-12-06T11:28:00.354Z,2.67
2022-12-06T11:30:26.873Z,2.83
2022-12-06T11:32:53.759Z,2.83
2022-12-06T11:35:25.196Z,3.20
2022-12-06T11:37:56.559Z,3.07
2022-12-06T11:40:30.540Z,3.20
2022-12-06T11:42:59.377Z,3.10
2022-12-06T11:45:27.763Z,2.57
2022-12-06T11:47:55.331Z,3.03
2022-12-06T11:50:22.079Z,3.23
2022-12-06T11:52:48.450Z,3.10
2022-12-06T11:55:19.868Z,2.70
2022-12-06T11:57:52.683Z,3.50
2022-12-06T12:00:24.371Z,2.83
2022-12-06T12:02:52.521Z,2.90
2022-12-06T12:05:26.864Z,3.00
2022-12-06T12:07:57.982Z,2.77
2022-12-06T12:10:26.385Z,2.87
2022-12-06T12:13:11.627Z,3.00
2022-12-06T12:15:39.582Z,3.00
2022-12-06T12:18:06.178Z,2.80
2022-12-06T12:20:39.684Z,2.70
2022-12-06T12:23:14.933Z,2.93
2022-12-06T12:25:43.742Z,2.80
2022-12-06T12:28:27.233Z,2.70
2022-12-06T12:30:55.088Z,3.00
2022-12-06T12:33:22.970Z,2.47
2022-12-06T12:36:16.788Z,4.33
2022-12-06T12:38:49.123Z,2.20
2022-12-06T12:41:21.594Z,2.70
2022-12-06T12:44:28.453Z,2.70
2022-12-06T12:46:45.836Z,2.67
2022-12-06T12:49:34.506Z,3.23
2022-12-06T12:52:02.300Z,3.20
2022-12-06T12:54:36.551Z,3.23
2022-12-06T12:57:13.258Z,3.00
2022-12-06T12:59:40.455Z,2.83
2022-12-06T13:02:23.384Z,3.27
2022-12-06T13:05:24.946Z,3.97
2022-12-06T13:07:47.794Z,4.17
2022-12-06T13:10:18.587Z,5.57
2022-12-06T13:12:47.687Z,4.63
2022-12-06T13:15:18.885Z,5.57
2022-12-06T13:17:48.009Z,5.63
2022-12-06T13:20:22.363Z,5.87
2022-12-06T13:22:50.781Z,6.90
2022-12-06T13:25:17.406Z,7.17
2022-12-06T13:27:45.663Z,6.30
2022-12-06T13:30:22.900Z,7.37
2022-12-06T13:32:58.423Z,8.40
2022-12-06T13:35:33.860Z,8.47
2022-12-06T13:38:26.159Z,7.17
2022-12-06T13:41:03.048Z,7.10
2022-12-06T13:43:29.465Z,7.80
2022-12-06T13:46:19.440Z,8.83
2022-12-06T13:48:59.287Z,9.07
2022-12-06T13:51:32.560Z,8.07
2022-12-06T13:54:05.210Z,9.43
2022-12-06T13:56:34.523Z,10.10
2022-12-06T13:59:05.381Z,9.83
2022-12-06T14:01:39.770Z,7.07
2022-12-06T14:06:52.503Z,7.97
2022-12-06T14:09:19.077Z,9.60
2022-12-06T14:11:45.701Z,8.07
2022-12-06T14:14:22.995Z,10.47
2022-12-06T14:16:59.567Z,9.47
2022-12-06T14:19:42.320Z,10.37
2022-12-06T14:22:19.515Z,10.73
2022-12-06T14:25:05.594Z,11.87
2022-12-06T14:27:41.615Z,8.67
2022-12-06T14:30:28.991Z,10.47
2022-12-06T14:32:56.794Z,9.83
2022-12-06T14:35:28.867Z,11.47
2022-12-06T14:37:56.366Z,11.23
2022-12-06T14:40:56.274Z,10.13
2022-12-06T14:43:24.074Z,12.07
2022-12-06T14:45:51.058Z,10.37
2022-12-06T14:48:17.571Z,12.53
2022-12-06T14:50:48.778Z,20.20
2022-12-06T14:53:27.484Z,20.13
2022-12-06T14:56:16.927Z,17.17
2022-12-06T14:58:43.556Z,19.57
2022-12-06T15:01:21.352Z,21.53
2022-12-06T15:04:01.259Z,26.97
2022-12-06T15:06:29.782Z,21.67
2022-12-06T15:09:00.883Z,22.50
2022-12-06T15:11:55.137Z,27.47
2022-12-06T15:14:28.555Z,22.67
2022-12-06T15:17:06.420Z,22.47
2022-12-06T15:19:34.230Z,25.93
2022-12-06T15:22:00.920Z,28.83
2022-12-06T15:24:28.311Z,28.33
2022-12-06T15:26:55.003Z,29.70
2022-12-06T15:29:21.767Z,30.40
2022-12-06T15:31:49.878Z,27.23
2022-12-06T15:34:23.437Z,27.97
2022-12-06T15:36:55.921Z,25.50
2022-12-06T15:39:35.754Z,25.03
2022-12-06T15:42:02.710Z,25.43
2022-12-06T15:44:29.317Z,24.60
2022-12-06T15:46:56.017Z,21.80
2022-12-06T15:49:25.809Z,23.00
2022-12-06T15:51:54.520Z,20.97
2022-12-06T15:54:25.366Z,21.37
2022-12-06T15:56:52.124Z,20.23
2022-12-06T15:59:18.915Z,19.33
2022-12-06T16:01:50.816Z,18.63
2022-12-06T16:04:21.051Z,17.63
2022-12-06T16:06:47.978Z,21.47
2022-12-06T16:09:15.566Z,20.13
2022-12-06T16:11:42.269Z,18.70
2022-12-06T16:14:09.042Z,19.87
2022-12-06T16:16:41.490Z,21.23
2022-12-06T16:19:09.750Z,21.23
2022-12-06T16:21:37.765Z,18.47
2022-12-06T16:24:13.811Z,17.70
2022-12-06T16:26:45.216Z,15.83
2022-12-06T16:29:17.096Z,18.97
2022-12-06T16:31:43.920Z,16.20
2022-12-06T16:34:10.491Z,17.40
2022-12-06T16:36:56.475Z,16.47
2022-12-06T16:39:23.000Z,18.10
2022-12-06T16:41:49.632Z,16.93
2022-12-06T16:44:16.243Z,15.40
2022-12-06T16:46:42.974Z,16.40
2022-12-06T16:49:45.171Z,18.17
2022-12-06T16:52:06.442Z,17.70
2022-12-06T16:54:33.163Z,16.40
2022-12-06T16:56:59.770Z,18.83
2022-12-06T16:59:26.360Z,17.83
2022-12-06T17:01:54.323Z,18.73
2022-12-06T17:04:20.989Z,17.03
2022-12-06T17:06:47.567Z,17.20
2022-12-06T17:09:14.450Z,19.17
2022-12-06T17:11:59.675Z,16.50
2022-12-06T17:14:26.495Z,15.63
2022-12-06T17:16:53.421Z,17.57
2022-12-06T17:19:21.814Z,15.80
2022-12-06T17:21:48.721Z,18.40
2022-12-06T17:26:50.767Z,16.93
2022-12-06T17:29:17.565Z,17.53
2022-12-06T17:31:44.188Z,15.50
2022-12-06T17:34:12.262Z,16.03
2022-12-06T17:36:38.964Z,14.53
2022-12-06T17:39:09.518Z,15.27
2022-12-06T17:41:55.849Z,15.10
2022-12-06T17:44:22.439Z,16.77
2022-12-06T17:46:57.007Z,16.63
2022-12-06T17:49:24.696Z,15.37
2022-12-06T17:51:51.476Z,14.27
2022-12-06T17:54:19.320Z,17.07
2022-12-06T17:57:11.839Z,15.17
2022-12-06T18:02:16.538Z,15.07
2022-12-06T18:04:44.121Z,13.93
2022-12-06T18:07:11.874Z,14.73
2022-12-06T18:09:38.449Z,13.47
2022-12-06T18:12:05.113Z,14.77
2022-12-06T18:14:31.804Z,14.77
2022-12-06T18:16:58.551Z,13.23
2022-12-06T18:19:26.223Z,14.60
2022-12-06T18:21:55.170Z,16.13
2022-12-06T18:24:24.599Z,13.10
2022-12-06T18:26:54.442Z,12.67
2022-12-06T18:29:22.859Z,13.37
2022-12-06T18:31:49.715Z,14.13
2022-12-06T18:34:16.375Z,14.10
2022-12-06T18:36:42.959Z,13.43
2022-12-06T18:39:15.034Z,12.93
2022-12-06T18:41:42.781Z,12.67
2022-12-06T18:44:09.411Z,11.53
2022-12-06T18:46:36.851Z,13.87
2022-12-06T18:49:05.632Z,13.13
2022-12-06T18:51:33.560Z,11.57
2022-12-06T18:54:02.212Z,11.20
2022-12-06T18:56:30.411Z,12.67
2022-12-06T18:59:00.818Z,11.40
2022-12-06T19:01:29.022Z,10.73
2022-12-06T19:03:56.286Z,10.40
2022-12-06T19:06:24.308Z,10.63
2022-12-06T19:08:51.553Z,13.43
2022-12-06T19:11:18.097Z,10.87
2022-12-06T19:13:55.719Z,10.60
2022-12-06T19:16:36.625Z,10.37
2022-12-06T19:19:04.279Z,8.90
2022-12-06T19:21:32.647Z,11.63
2022-12-06T19:23:59.239Z,9.40
2022-12-06T19:26:26.162Z,11.57
2022-12-06T19:28:52.863Z,12.30
2022-12-06T19:31:20.588Z,11.83
2022-12-06T19:33:47.189Z,12.20
2022-12-06T19:36:15.756Z,10.90
2022-12-06T19:38:42.706Z,10.80
2022-12-06T19:41:11.847Z,10.63
2022-12-06T19:43:57.247Z,13.93
2022-12-06T19:46:28.165Z,9.97
2022-12-06T19:48:59.297Z,10.23
2022-12-06T19:51:28.838Z,12.13
2022-12-06T19:53:56.269Z,11.50
2022-12-06T19:56:22.823Z,8.57
2022-12-06T19:58:49.428Z,9.80
2022-12-06T20:01:17.835Z,8.37
2022-12-06T20:03:47.044Z,7.80
2022-12-06T20:06:18.372Z,11.53
2022-12-06T20:08:45.777Z,8.83
2022-12-06T20:11:33.795Z,8.20
2022-12-06T20:14:03.460Z,8.97
2022-12-06T20:16:32.249Z,7.67
2022-12-06T20:18:59.198Z,7.17
2022-12-06T20:21:25.788Z,7.73
2022-12-06T20:23:53.110Z,7.23
2022-12-06T20:26:19.739Z,7.40
2022-12-06T20:28:46.876Z,8.30
2022-12-06T20:31:16.283Z,6.90
2022-12-06T20:33:42.967Z,6.87
2022-12-06T20:36:12.436Z,7.33
2022-12-06T20:38:39.151Z,6.90
2022-12-06T20:41:13.362Z,7.23
2022-12-06T20:43:40.106Z,7.30
2022-12-06T20:46:14.554Z,7.50
2022-12-06T20:48:41.816Z,7.47
2022-12-06T20:51:15.693Z,7.33
2022-12-06T20:53:42.480Z,5.80
2022-12-06T20:56:10.387Z,8.37
2022-12-06T20:58:37.064Z,6.90
2022-12-06T21:01:03.902Z,6.47
2022-12-06T21:03:32.258Z,7.93
2022-12-06T21:06:03.193Z,6.87
2022-12-06T21:08:30.279Z,8.33
2022-12-06T21:11:21.572Z,6.67
2022-12-06T21:13:43.744Z,8.50
2022-12-06T21:16:29.607Z,7.33
2022-12-06T21:18:58.605Z,6.43
2022-12-06T21:21:27.213Z,5.97
2022-12-06T21:23:53.862Z,6.90
2022-12-06T21:26:20.466Z,6.63
2022-12-06T21:28:47.071Z,8.00
2022-12-06T21:31:13.921Z,8.43
2022-12-06T21:33:40.515Z,6.60
2022-12-06T21:36:07.277Z,6.97
2022-12-06T21:38:34.361Z,6.27
2022-12-06T21:41:13.377Z,5.17
2022-12-06T21:43:40.127Z,5.07
2022-12-06T21:46:20.064Z,5.77
2022-12-06T21:48:51.316Z,5.40
2022-12-06T21:51:18.106Z,5.67
2022-12-06T21:53:44.664Z,6.17
2022-12-06T21:56:22.088Z,4.90
2022-12-06T21:58:48.709Z,5.10
2022-12-06T22:01:17.882Z,5.13
2022-12-06T22:03:47.701Z,5.63
2022-12-06T22:06:14.256Z,4.83
2022-12-06T22:08:41.331Z,5.53
2022-12-06T22:11:19.194Z,5.33
2022-12-06T22:13:46.347Z,4.60
2022-12-06T22:16:13.134Z,4.13
2022-12-06T22:18:44.974Z,4.53
2022-12-06T22:21:17.237Z,4.30
2022-12-06T22:23:44.155Z,4.37
2022-12-06T22:26:13.672Z,4.57
2022-12-06T22:28:40.266Z,4.53
2022-12-06T22:31:26.344Z,4.00
2022-12-06T22:33:53.043Z,5.03
2022-12-06T22:36:20.388Z,3.90
2022-12-06T22:38:54.173Z,4.13
2022-12-06T22:41:20.957Z,3.70
2022-12-06T22:43:55.057Z,3.77
2022-12-06T22:46:21.789Z,3.60
2022-12-06T22:48:48.630Z,3.73
2022-12-06T22:51:15.115Z,3.93
2022-12-06T22:53:42.985Z,4.10
2022-12-06T22:56:09.620Z,4.80
2022-12-06T22:58:39.377Z,3.70
2022-12-06T23:01:11.876Z,4.40
2022-12-06T23:03:42.474Z,3.70
2022-12-06T23:06:09.259Z,3.60
2022-12-06T23:08:35.924Z,3.40
2022-12-06T23:11:15.888Z,3.60
2022-12-06T23:13:42.623Z,3.40
2022-12-06T23:16:12.295Z,3.60
2022-12-06T23:18:38.960Z,4.03
2022-12-06T23:21:08.424Z,3.77
2022-12-06T23:23:35.140Z,3.60
2022-12-06T23:26:04.886Z,4.17
2022-12-06T23:28:31.610Z,3.90
2022-12-06T23:31:15.127Z,3.87
2022-12-06T23:33:42.194Z,3.50
2022-12-06T23:36:13.792Z,3.90
2022-12-06T23:38:40.512Z,4.03
2022-12-06T23:41:18.050Z,3.20
2022-12-06T23:43:44.735Z,3.60
2022-12-06T23:46:13.030Z,3.40
2022-12-06T23:48:40.201Z,3.60
2022-12-06T23:51:14.013Z,3.70
2022-12-06T23:53:40.806Z,3.00
2022-12-06T23:56:08.458Z,3.67
2022-12-06T23:58:35.132Z,3.40
